Thornburg, Virginia
Current Conditions -  °F | °C
As of 9:35 AM on Saturday 22 Nov 2014 (Local Time) from KEZF Reporting Station
Clear Clear  
Wind Chill: 31°   Ceiling: Unl
Heat Index: 37°   Visibility: 10mi
Dew Point: 18°   Wind: 8mph
Humidity: 46%   Direction: 190°S
Pressure: 30.52"   Gusts: NA
Location:  38.13°N, 77.52°W
Report Text: KEZF 221435Z AUTO 19007KT 10SM CLR 03/M08 A3052 RMK AO2 T00261080
Loading
Personal Weather Stations






























Interactive Weather Map New forecast layout! Learn more

10-Day Weather Forecast

Advertisements
Track Severe Weather on mobile